sensor_id;sensor_type;location;lat;lon;timestamp;pressure;altitude;pressure_sealevel;temperature;humidity
2192;BME280;1102;49.718;11.902;2023-04-01T00:01:19;94780.22;;;6.37;100.00
2192;BME280;1102;49.718;11.902;2023-04-01T00:03:46;94779.28;;;6.29;100.00
2192;BME280;1102;49.718;11.902;2023-04-01T00:06:14;94808.75;;;6.54;100.00
2192;BME280;1102;49.718;11.902;2023-04-01T00:08:41;94747.34;;;6.11;100.00
2192;BME280;1102;49.718;11.902;2023-04-01T00:11:08;94799.63;;;6.48;100.00
2192;BME280;1102;49.718;11.902;2023-04-01T00:13:35;94781.31;;;6.36;100.00
2192;BME280;1102;49.718;11.902;2023-04-01T00:16:02;94754.47;;;6.27;100.00
2192;BME280;1102;49.718;11.902;2023-04-01T00:18:45;94772.88;;;6.42;100.00
2192;BME280;1102;49.718;11.902;2023-04-01T00:21:14;94757.69;;;6.36;100.00
2192;BME280;1102;49.718;11.902;2023-04-01T00:23:41;94784.28;;;6.50;100.00
2192;BME280;1102;49.718;11.902;2023-04-01T00:26:08;94779.72;;;6.47;100.00
2192;BME280;1102;49.718;11.902;2023-04-01T00:28:35;94774.72;;;6.42;100.00
2192;BME280;1102;49.718;11.902;2023-04-01T00:31:09;94759.13;;;6.33;100.00
2192;BME280;1102;49.718;11.902;2023-04-01T00:33:37;94790.06;;;6.56;100.00
2192;BME280;1102;49.718;11.902;2023-04-01T00:36:12;94790.72;;;6.52;100.00
2192;BME280;1102;49.718;11.902;2023-04-01T00:38:40;94769.38;;;6.38;100.00
2192;BME280;1102;49.718;11.902;2023-04-01T00:41:10;94788.56;;;6.55;100.00
2192;BME280;1102;49.718;11.902;2023-04-01T00:43:41;94745.75;;;6.22;100.00
2192;BME280;1102;49.718;11.902;2023-04-01T00:46:08;94760.56;;;6.31;100.00
2192;BME280;1102;49.718;11.902;2023-04-01T00:48:38;94783.44;;;6.46;100.00
2192;BME280;1102;49.718;11.902;2023-04-01T00:51:09;94782.16;;;6.40;100.00
2192;BME280;1102;49.718;11.902;2023-04-01T00:53:43;94788.38;;;6.47;100.00
2192;BME280;1102;49.718;11.902;2023-04-01T00:56:21;94770.72;;;6.32;100.00
2192;BME280;1102;49.718;11.902;2023-04-01T00:58:52;94765.41;;;6.29;100.00
2192;BME280;1102;49.718;11.902;2023-04-01T01:01:22;94690.66;;;5.79;100.00
2192;BME280;1102;49.718;11.902;2023-04-01T01:03:51;94752.16;;;6.25;100.00
2192;BME280;1102;49.718;11.902;2023-04-01T01:09:07;94791.41;;;6.49;100.00
2192;BME280;1102;49.718;11.902;2023-04-01T01:11:44;94770.47;;;6.37;100.00
2192;BME280;1102;49.718;11.902;2023-04-01T01:30:52;94752.28;;;6.29;100.00
2192;BME280;1102;49.718;11.902;2023-04-01T01:33:47;94652.81;;;5.64;100.00
2192;BME280;1102;49.718;11.902;2023-04-01T01:36:17;94738.28;;;6.25;100.00
2192;BME280;1102;49.718;11.902;2023-04-01T01:38:47;94741.03;;;6.28;100.00
2192;BME280;1102;49.718;11.902;2023-04-01T01:41:16;94748.22;;;6.31;100.00
2192;BME280;1102;49.718;11.902;2023-04-01T01:43:46;94779.47;;;6.52;100.00
2192;BME280;1102;49.718;11.902;2023-04-01T01:46:19;94731.19;;;6.25;100.00
2192;BME280;1102;49.718;11.902;2023-04-01T01:48:48;94763.22;;;6.46;100.00
2192;BME280;1102;49.718;11.902;2023-04-01T01:51:18;94765.41;;;6.44;100.00
2192;BME280;1102;49.718;11.902;2023-04-01T01:53:46;94759.28;;;6.40;100.00
2192;BME280;1102;49.718;11.902;2023-04-01T01:56:17;94741.03;;;6.28;100.00
2192;BME280;1102;49.718;11.902;2023-04-01T01:58:47;94719.34;;;6.15;100.00
2192;BME280;1102;49.718;11.902;2023-04-01T02:01:24;94775.84;;;6.57;100.00
2192;BME280;1102;49.718;11.902;2023-04-01T02:03:55;94739.59;;;6.31;100.00
2192;BME280;1102;49.718;11.902;2023-04-01T02:06:23;94785.31;;;6.61;100.00
2192;BME280;1102;49.718;11.902;2023-04-01T02:09:02;94788.72;;;6.62;100.00
2192;BME280;1102;49.718;11.902;2023-04-01T02:11:36;94784.22;;;6.62;100.00
2192;BME280;1102;49.718;11.902;2023-04-01T02:14:15;94771.94;;;6.50;100.00
2192;BME280;1102;49.718;11.902;2023-04-01T02:16:54;94785.31;;;6.61;100.00
2192;BME280;1102;49.718;11.902;2023-04-01T02:19:27;94778.97;;;6.62;100.00
2192;BME280;1102;49.718;11.902;2023-04-01T02:22:00;94777.44;;;6.61;100.00
2192;BME280;1102;49.718;11.902;2023-04-01T02:24:30;94776.94;;;6.56;100.00
2192;BME280;1102;49.718;11.902;2023-04-01T02:26:57;94745.53;;;6.43;100.00
2192;BME280;1102;49.718;11.902;2023-04-01T02:29:26;94781.34;;;6.67;100.00
2192;BME280;1102;49.718;11.902;2023-04-01T02:31:54;94761.78;;;6.49;100.00
2192;BME280;1102;49.718;11.902;2023-04-01T02:34:22;94765.06;;;6.46;100.00
2192;BME280;1102;49.718;11.902;2023-04-01T02:36:50;94740.56;;;6.26;100.00
2192;BME280;1102;49.718;11.902;2023-04-01T02:39:17;94720.94;;;6.20;100.00
2192;BME280;1102;49.718;11.902;2023-04-01T02:41:45;94797.09;;;6.67;100.00
2192;BME280;1102;49.718;11.902;2023-04-01T02:44:14;94796.78;;;6.69;100.00
2192;BME280;1102;49.718;11.902;2023-04-01T02:46:42;94736.53;;;6.29;100.00
2192;BME280;1102;49.718;11.902;2023-04-01T02:49:09;94798.94;;;6.67;100.00
2192;BME280;1102;49.718;11.902;2023-04-01T02:51:35;94784.13;;;6.59;100.00
2192;BME280;1102;49.718;11.902;2023-04-01T02:54:02;94789.72;;;6.57;100.00
2192;BME280;1102;49.718;11.902;2023-04-01T02:56:29;94732.13;;;6.17;100.00
2192;BME280;1102;49.718;11.902;2023-04-01T02:58:56;94789.41;;;6.59;100.00
2192;BME280;1102;49.718;11.902;2023-04-01T03:01:23;94789.31;;;6.55;100.00
2192;BME280;1102;49.718;11.902;2023-04-01T03:03:50;94814.41;;;6.68;100.00
2192;BME280;1102;49.718;11.902;2023-04-01T03:06:17;94809.91;;;6.69;100.00
2192;BME280;1102;49.718;11.902;2023-04-01T03:08:44;94784.63;;;6.48;100.00
2192;BME280;1102;49.718;11.902;2023-04-01T03:11:11;94817.34;;;6.67;100.00
2192;BME280;1102;49.718;11.902;2023-04-01T03:13:38;94786.69;;;6.55;100.00
2192;BME280;1102;49.718;11.902;2023-04-01T03:16:05;94814.56;;;6.75;100.00
2192;BME280;1102;49.718;11.902;2023-04-01T03:18:34;94782.84;;;6.52;100.00
2192;BME280;1102;49.718;11.902;2023-04-01T03:21:18;94795.06;;;6.61;100.00
2192;BME280;1102;49.718;11.902;2023-04-01T03:23:45;94791.34;;;6.62;100.00
2192;BME280;1102;49.718;11.902;2023-04-01T03:26:12;94799.81;;;6.55;100.00
2192;BME280;1102;49.718;11.902;2023-04-01T03:28:40;94806.31;;;6.61;100.00
2192;BME280;1102;49.718;11.902;2023-04-01T03:31:07;94818.88;;;6.68;100.00
2192;BME280;1102;49.718;11.902;2023-04-01T03:33:40;94798.44;;;6.61;100.00
2192;BME280;1102;49.718;11.902;2023-04-01T03:36:07;94802.94;;;6.61;100.00
2192;BME280;1102;49.718;11.902;2023-04-01T03:38:35;94721.78;;;6.08;100.00
2192;BME280;1102;49.718;11.902;2023-04-01T03:41:02;94829.97;;;6.77;100.00
2192;BME280;1102;49.718;11.902;2023-04-01T03:43:30;94821.41;;;6.64;100.00
2192;BME280;1102;49.718;11.902;2023-04-01T03:45:57;94803.97;;;6.56;100.00
2192;BME280;1102;49.718;11.902;2023-04-01T03:48:25;94786.75;;;6.43;100.00
2192;BME280;1102;49.718;11.902;2023-04-01T03:50:52;94804.19;;;6.51;100.00
2192;BME280;1102;49.718;11.902;2023-04-01T03:53:19;94752.34;;;6.16;100.00
2192;BME280;1102;49.718;11.902;2023-04-01T03:55:47;94809.97;;;6.57;100.00
2192;BME280;1102;49.718;11.902;2023-04-01T03:58:14;94792.78;;;6.43;100.00
2192;BME280;1102;49.718;11.902;2023-04-01T04:00:41;94802.59;;;6.46;100.00
2192;BME280;1102;49.718;11.902;2023-04-01T04:03:09;94825.31;;;6.55;100.00
2192;BME280;1102;49.718;11.902;2023-04-01T04:05:36;94794.56;;;6.55;100.00
2192;BME280;1102;49.718;11.902;2023-04-01T04:08:03;94831.84;;;6.76;100.00
2192;BME280;1102;49.718;11.902;2023-04-01T04:10:30;94803.19;;;6.56;100.00
2192;BME280;1102;49.718;11.902;2023-04-01T04:12:57;94833.84;;;6.67;100.00
2192;BME280;1102;49.718;11.902;2023-04-01T04:15:27;94789.38;;;6.43;100.00
2192;BME280;1102;49.718;11.902;2023-04-01T04:17:53;94811.25;;;6.63;100.00
2192;BME280;1102;49.718;11.902;2023-04-01T04:20:20;94809.72;;;6.62;100.00
2192;BME280;1102;49.718;11.902;2023-04-01T04:22:47;94797.41;;;6.50;100.00
2192;BME280;1102;49.718;11.902;2023-04-01T04:25:14;94807.41;;;6.44;100.00
2192;BME280;1102;49.718;11.902;2023-04-01T04:27:41;94834.88;;;6.63;100.00
2192;BME280;1102;49.718;11.902;2023-04-01T04:30:11;94812.41;;;6.49;100.00
2192;BME280;1102;49.718;11.902;2023-04-01T04:32:37;94813.09;;;6.46;100.00
2192;BME280;1102;49.718;11.902;2023-04-01T04:35:04;94849.72;;;6.71;100.00
2192;BME280;1102;49.718;11.902;2023-04-01T04:37:33;94818.41;;;6.50;100.00
2192;BME280;1102;49.718;11.902;2023-04-01T04:40:00;94845.91;;;6.68;100.00
2192;BME280;1102;49.718;11.902;2023-04-01T04:42:27;94835.88;;;6.58;100.00
2192;BME280;1102;49.718;11.902;2023-04-01T04:44:59;94829.47;;;6.56;100.00
2192;BME280;1102;49.718;11.902;2023-04-01T04:47:26;94803.91;;;6.40;100.00
2192;BME280;1102;49.718;11.902;2023-04-01T04:49:53;94817.50;;;6.42;100.00
2192;BME280;1102;49.718;11.902;2023-04-01T04:52:20;94760.56;;;6.15;100.00
2192;BME280;1102;49.718;11.902;2023-04-01T04:54:46;94794.78;;;6.34;100.00
2192;BME280;1102;49.718;11.902;2023-04-01T04:57:14;94802.50;;;6.43;100.00
2192;BME280;1102;49.718;11.902;2023-04-01T04:59:47;94835.22;;;6.61;100.00
2192;BME280;1102;49.718;11.902;2023-04-01T05:02:24;94858.69;;;6.70;100.00
2192;BME280;1102;49.718;11.902;2023-04-01T05:04:51;94824.44;;;6.50;100.00
2192;BME280;1102;49.718;11.902;2023-04-01T05:07:18;94800.72;;;6.31;100.00
2192;BME280;1102;49.718;11.902;2023-04-01T05:09:45;94853.25;;;6.63;100.00
2192;BME280;1102;49.718;11.902;2023-04-01T05:12:13;94844.66;;;6.50;100.00
2192;BME280;1102;49.718;11.902;2023-04-01T05:15:00;94840.09;;;6.47;100.00
2192;BME280;1102;49.718;11.902;2023-04-01T05:17:27;94812.66;;;6.29;100.00
2192;BME280;1102;49.718;11.902;2023-04-01T05:19:54;94842.22;;;6.41;100.00
2192;BME280;1102;49.718;11.902;2023-04-01T05:22:20;94839.91;;;6.40;100.00
2192;BME280;1102;49.718;11.902;2023-04-01T05:24:47;94838.38;;;6.39;100.00
2192;BME280;1102;49.718;11.902;2023-04-01T05:27:14;94848.53;;;6.40;100.00
2192;BME280;1102;49.718;11.902;2023-04-01T05:29:41;94823.56;;;6.31;100.00
2192;BME280;1102;49.718;11.902;2023-04-01T05:32:23;94810.56;;;6.22;100.00
2192;BME280;1102;49.718;11.902;2023-04-01T05:34:51;94827.28;;;6.30;100.00
2192;BME280;1102;49.718;11.902;2023-04-01T05:37:19;94802.75;;;6.10;100.00
2192;BME280;1102;49.718;11.902;2023-04-01T05:39:46;94792.84;;;6.03;100.00
2192;BME280;1102;49.718;11.902;2023-04-01T05:42:12;94834.41;;;6.29;100.00
2192;BME280;1102;49.718;11.902;2023-04-01T05:44:40;94822.19;;;6.21;100.00
2192;BME280;1102;49.718;11.902;2023-04-01T05:47:07;94810.56;;;6.22;100.00
2192;BME280;1102;49.718;11.902;2023-04-01T05:49:34;94827.78;;;6.35;100.00
2192;BME280;1102;49.718;11.902;2023-04-01T05:52:02;94798.28;;;6.10;100.00
2192;BME280;1102;49.718;11.902;2023-04-01T05:54:30;94826.94;;;6.31;100.00
2192;BME280;1102;49.718;11.902;2023-04-01T05:56:57;94828.91;;;6.34;100.00
2192;BME280;1102;49.718;11.902;2023-04-01T05:59:23;94859.53;;;6.58;100.00
2192;BME280;1102;49.718;11.902;2023-04-01T06:01:50;94861.44;;;6.45;100.00
2192;BME280;1102;49.718;11.902;2023-04-01T06:04:19;94831.16;;;6.20;100.00
2192;BME280;1102;49.718;11.902;2023-04-01T06:06:46;94851.50;;;6.39;100.00
2192;BME280;1102;49.718;11.902;2023-04-01T06:17:34;94849.13;;;6.34;100.00
2192;BME280;1102;49.718;11.902;2023-04-01T06:20:43;94845.91;;;6.40;100.00
2192;BME280;1102;49.718;11.902;2023-04-01T06:23:32;94858.06;;;6.61;100.00
2192;BME280;1102;49.718;11.902;2023-04-01T06:35:07;94857.38;;;6.48;100.00
2192;BME280;1102;49.718;11.902;2023-04-01T06:40:31;94872.31;;;6.60;100.00
2192;BME280;1102;49.718;11.902;2023-04-01T06:49:48;94860.97;;;6.56;100.00
2192;BME280;1102;49.718;11.902;2023-04-01T06:55:52;94843.34;;;6.56;100.00
2192;BME280;1102;49.718;11.902;2023-04-01T06:58:40;94856.13;;;6.58;100.00
2192;BME280;1102;49.718;11.902;2023-04-01T07:04:05;94832.72;;;6.52;100.00
2192;BME280;1102;49.718;11.902;2023-04-01T07:06:57;94858.34;;;6.71;100.00
2192;BME280;1102;49.718;11.902;2023-04-01T07:09:32;94835.22;;;6.61;100.00
2192;BME280;1102;49.718;11.902;2023-04-01T07:12:44;94847.84;;;6.71;100.00
2192;BME280;1102;49.718;11.902;2023-04-01T07:16:11;94855.06;;;6.74;100.00
2192;BME280;1102;49.718;11.902;2023-04-01T07:18:45;94870.41;;;6.88;100.00
2192;BME280;1102;49.718;11.902;2023-04-01T07:21:29;94863.69;;;6.91;100.00
2192;BME280;1102;49.718;11.902;2023-04-01T07:24:05;94867.63;;;6.97;100.00
2192;BME280;1102;49.718;11.902;2023-04-01T07:26:37;94836.75;;;6.78;100.00
2192;BME280;1102;49.718;11.902;2023-04-01T07:29:12;94817.34;;;6.67;100.00
2192;BME280;1102;49.718;11.902;2023-04-01T07:32:01;94863.47;;;7.11;100.00
2192;BME280;1102;49.718;11.902;2023-04-01T07:45:28;94837.09;;;7.08;100.00
2192;BME280;1102;49.718;11.902;2023-04-01T07:48:07;94886.06;;;7.32;100.00
2192;BME280;1102;49.718;11.902;2023-04-01T07:53:29;94889.44;;;7.64;100.00
2192;BME280;1102;49.718;11.902;2023-04-01T07:56:06;94842.44;;;7.11;100.00
2192;BME280;1102;49.718;11.902;2023-04-01T08:01:36;94889.47;;;7.32;100.00
2192;BME280;1102;49.718;11.902;2023-04-01T08:07:15;94903.28;;;7.45;100.00
2192;BME280;1102;49.718;11.902;2023-04-01T08:10:31;94903.88;;;7.54;100.00
2192;BME280;1102;49.718;11.902;2023-04-01T08:13:53;94896.97;;;7.81;100.00
2192;BME280;1102;49.718;11.902;2023-04-01T08:22:29;94892.34;;;7.94;100.00
2192;BME280;1102;49.718;11.902;2023-04-01T08:25:02;94861.41;;;7.71;100.00
2192;BME280;1102;49.718;11.902;2023-04-01T08:27:54;94878.97;;;7.83;100.00
2192;BME280;1102;49.718;11.902;2023-04-01T08:30:25;94904.22;;;8.04;100.00
2192;BME280;1102;49.718;11.902;2023-04-01T08:35:27;94905.63;;;8.01;100.00
2192;BME280;1102;49.718;11.902;2023-04-01T08:38:04;94879.66;;;7.80;100.00
2192;BME280;1102;49.718;11.902;2023-04-01T08:46:07;94862.34;;;7.79;100.00
2192;BME280;1102;49.718;11.902;2023-04-01T08:59:43;94868.75;;;8.17;100.00
2192;BME280;1102;49.718;11.902;2023-04-01T09:11:17;94881.19;;;8.36;100.00
2192;BME280;1102;49.718;11.902;2023-04-01T09:28:50;94906.31;;;8.33;100.00
2192;BME280;1102;49.718;11.902;2023-04-01T09:31:26;94898.59;;;8.24;100.00
2192;BME280;1102;49.718;11.902;2023-04-01T09:35:05;94868.25;;;8.11;100.00
2192;BME280;1102;49.718;11.902;2023-04-01T09:37:51;94902.25;;;8.36;100.00
2192;BME280;1102;49.718;11.902;2023-04-01T09:54:17;94913.16;;;8.18;100.00
2192;BME280;1102;49.718;11.902;2023-04-01T10:52:28;94828.91;;;7.80;100.00
2192;BME280;1102;49.718;11.902;2023-04-01T11:02:01;94903.16;;;8.43;100.00
2192;BME280;1102;49.718;11.902;2023-04-01T11:22:34;94893.88;;;8.14;100.00
2192;BME280;1102;49.718;11.902;2023-04-01T11:28:38;94874.06;;;8.01;100.00
2192;BME280;1102;49.718;11.902;2023-04-01T11:42:47;94863.59;;;7.34;100.00
2192;BME280;1102;49.718;11.902;2023-04-01T11:48:36;94896.16;;;7.61;100.00
2192;BME280;1102;49.718;11.902;2023-04-01T11:54:13;94896.22;;;8.00;100.00
2192;BME280;1102;49.718;11.902;2023-04-01T12:11:12;94903.44;;;8.22;100.00
2192;BME280;1102;49.718;11.902;2023-04-01T12:27:39;94909.53;;;8.07;100.00
2192;BME280;1102;49.718;11.902;2023-04-01T12:47:05;94896.47;;;7.76;100.00
2192;BME280;1102;49.718;11.902;2023-04-01T12:49:21;94906.44;;;7.86;100.00
2192;BME280;1102;49.718;11.902;2023-04-01T12:52:03;94910.19;;;7.85;100.00
2192;BME280;1102;49.718;11.902;2023-04-01T13:06:35;94906.94;;;7.56;100.00
2192;BME280;1102;49.718;11.902;2023-04-01T13:12:35;94897.50;;;7.55;100.00
2192;BME280;1102;49.718;11.902;2023-04-01T13:25:42;94908.06;;;7.90;100.00
2192;BME280;1102;49.718;11.902;2023-04-01T13:28:33;94899.09;;;7.76;100.00
2192;BME280;1102;49.718;11.902;2023-04-01T13:31:38;94910.81;;;7.78;100.00
2192;BME280;1102;49.718;11.902;2023-04-01T13:39:52;94912.31;;;7.79;100.00
2192;BME280;1102;49.718;11.902;2023-04-01T13:42:29;94912.91;;;7.72;100.00
2192;BME280;1102;49.718;11.902;2023-04-01T13:45:04;94915.47;;;7.69;100.00
2192;BME280;1102;49.718;11.902;2023-04-01T14:02:07;94914.19;;;7.79;100.00
2192;BME280;1102;49.718;11.902;2023-04-01T14:10:19;94918.88;;;7.69;100.00
2192;BME280;1102;49.718;11.902;2023-04-01T14:21:17;94920.25;;;7.98;100.00
2192;BME280;1102;49.718;11.902;2023-04-01T14:23:56;94882.63;;;7.79;100.00
2192;BME280;1102;49.718;11.902;2023-04-01T14:26:35;94922.69;;;8.07;100.00
2192;BME280;1102;49.718;11.902;2023-04-01T14:29:28;94933.09;;;8.19;100.00
2192;BME280;1102;49.718;11.902;2023-04-01T14:32:11;94925.03;;;8.28;100.00
2192;BME280;1102;49.718;11.902;2023-04-01T14:40:19;94917.56;;;8.14;100.00
2192;BME280;1102;49.718;11.902;2023-04-01T14:50:45;94895.25;;;7.89;100.00
2192;BME280;1102;49.718;11.902;2023-04-01T14:53:29;94909.66;;;7.95;100.00
2192;BME280;1102;49.718;11.902;2023-04-01T14:56:00;94914.84;;;7.91;100.00
2192;BME280;1102;49.718;11.902;2023-04-01T14:58:49;94908.59;;;7.80;100.00
2192;BME280;1102;49.718;11.902;2023-04-01T15:30:54;94932.28;;;7.64;100.00
2192;BME280;1102;49.718;11.902;2023-04-01T15:33:42;94937.56;;;7.64;100.00
2192;BME280;1102;49.718;11.902;2023-04-01T15:36:29;94948.84;;;7.65;100.00
2192;BME280;1102;49.718;11.902;2023-04-01T15:39:20;94947.41;;;7.52;100.00
2192;BME280;1102;49.718;11.902;2023-04-01T15:49:56;94948.75;;;7.61;100.00
2192;BME280;1102;49.718;11.902;2023-04-01T15:55:21;94946.44;;;7.60;100.00
2192;BME280;1102;49.718;11.902;2023-04-01T16:00:30;94949.53;;;7.62;100.00
2192;BME280;1102;49.718;11.902;2023-04-01T16:17:04;94968.03;;;7.50;100.00
2192;BME280;1102;49.718;11.902;2023-04-01T16:22:23;94955.44;;;7.43;100.00
2192;BME280;1102;49.718;11.902;2023-04-01T16:27:53;94977.84;;;7.53;100.00
2192;BME280;1102;49.718;11.902;2023-04-01T16:33:03;94980.28;;;7.46;100.00
2192;BME280;1102;49.718;11.902;2023-04-01T16:35:47;94927.28;;;7.12;100.00
2192;BME280;1102;49.718;11.902;2023-04-01T16:43:44;94972.47;;;7.33;100.00
2192;BME280;1102;49.718;11.902;2023-04-01T16:46:34;94981.41;;;7.29;100.00
2192;BME280;1102;49.718;11.902;2023-04-01T16:51:48;94976.91;;;7.29;100.00
2192;BME280;1102;49.718;11.902;2023-04-01T16:54:39;94980.56;;;7.25;100.00
2192;BME280;1102;49.718;11.902;2023-04-01T17:02:26;94990.31;;;7.24;100.00
2192;BME280;1102;49.718;11.902;2023-04-01T17:05:04;94974.25;;;7.14;100.00
2192;BME280;1102;49.718;11.902;2023-04-01T17:16:26;94984.25;;;7.08;100.00
2192;BME280;1102;49.718;11.902;2023-04-01T17:29:57;95000.03;;;7.08;100.00
2192;BME280;1102;49.718;11.902;2023-04-01T17:41:06;95014.91;;;7.04;100.00
2192;BME280;1102;49.718;11.902;2023-04-01T17:43:47;95023.38;;;6.97;100.00
2192;BME280;1102;49.718;11.902;2023-04-01T17:49:43;95031.69;;;6.99;100.00
2192;BME280;1102;49.718;11.902;2023-04-01T17:55:25;95015.69;;;6.76;100.00
2192;BME280;1102;49.718;11.902;2023-04-01T18:15:24;95052.75;;;6.87;100.00
2192;BME280;1102;49.718;11.902;2023-04-01T18:20:36;95055.38;;;6.87;100.00
2192;BME280;1102;49.718;11.902;2023-04-01T18:25:47;95041.75;;;6.69;100.00
2192;BME280;1102;49.718;11.902;2023-04-01T18:36:20;95048.88;;;6.69;100.00
2192;BME280;1102;49.718;11.902;2023-04-01T18:39:04;95027.47;;;6.55;100.00
2192;BME280;1102;49.718;11.902;2023-04-01T18:41:42;95073.34;;;6.85;100.00
2192;BME280;1102;49.718;11.902;2023-04-01T18:44:38;95055.31;;;6.71;100.00
2192;BME280;1102;49.718;11.902;2023-04-01T18:49:55;95081.66;;;6.87;100.00
2192;BME280;1102;49.718;11.902;2023-04-01T18:52:43;95092.50;;;6.86;100.00
2192;BME280;1102;49.718;11.902;2023-04-01T18:55:30;95098.50;;;6.86;100.00
2192;BME280;1102;49.718;11.902;2023-04-01T18:58:18;95099.59;;;6.85;100.00
2192;BME280;1102;49.718;11.902;2023-04-01T19:01:11;95066.72;;;6.63;100.00
2192;BME280;1102;49.718;11.902;2023-04-01T19:03:52;95108.00;;;6.91;100.00
2192;BME280;1102;49.718;11.902;2023-04-01T19:06:34;95063.75;;;6.52;100.00
2192;BME280;1102;49.718;11.902;2023-04-01T19:09:32;95090.78;;;6.65;100.00
2192;BME280;1102;49.718;11.902;2023-04-01T19:15:40;95120.06;;;6.79;100.00
2192;BME280;1102;49.718;11.902;2023-04-01T19:26:25;95104.47;;;6.59;100.00
2192;BME280;1102;49.718;11.902;2023-04-01T19:31:59;95067.50;;;6.39;100.00
2192;BME280;1102;49.718;11.902;2023-04-01T19:37:56;95124.69;;;6.70;100.00
2192;BME280;1102;49.718;11.902;2023-04-01T19:40:53;95123.28;;;6.73;100.00
2192;BME280;1102;49.718;11.902;2023-04-01T19:51:01;95107.19;;;6.50;100.00
2192;BME280;1102;49.718;11.902;2023-04-01T19:53:44;95135.63;;;6.72;100.00
2192;BME280;1102;49.718;11.902;2023-04-01T19:56:16;95143.19;;;6.74;100.00
2192;BME280;1102;49.718;11.902;2023-04-01T19:58:57;95147.78;;;6.77;100.00
2192;BME280;1102;49.718;11.902;2023-04-01T20:01:35;95084.16;;;6.31;100.00
2192;BME280;1102;49.718;11.902;2023-04-01T20:04:20;95143.72;;;6.67;100.00
2192;BME280;1102;49.718;11.902;2023-04-01T20:12:50;95148.88;;;6.76;100.00
2192;BME280;1102;49.718;11.902;2023-04-01T20:15:35;95163.53;;;6.77;100.00
2192;BME280;1102;49.718;11.902;2023-04-01T20:18:23;95138.03;;;6.53;100.00
2192;BME280;1102;49.718;11.902;2023-04-01T20:21:06;95162.44;;;6.66;100.00
2192;BME280;1102;49.718;11.902;2023-04-01T20:23:53;95124.16;;;6.40;100.00
2192;BME280;1102;49.718;11.902;2023-04-01T20:26:30;95172.41;;;6.72;100.00
2192;BME280;1102;49.718;11.902;2023-04-01T20:35:38;95107.09;;;6.22;100.00
2192;BME280;1102;49.718;11.902;2023-04-01T20:41:05;95181.38;;;6.71;100.00
2192;BME280;1102;49.718;11.902;2023-04-01T20:46:22;95179.41;;;6.68;100.00
2192;BME280;1102;49.718;11.902;2023-04-01T20:51:46;95182.81;;;6.69;100.00
2192;BME280;1102;49.718;11.902;2023-04-01T20:54:55;95160.16;;;6.52;100.00
2192;BME280;1102;49.718;11.902;2023-04-01T20:57:44;95181.72;;;6.70;100.00
2192;BME280;1102;49.718;11.902;2023-04-01T21:00:37;95190.34;;;6.70;100.00
2192;BME280;1102;49.718;11.902;2023-04-01T21:06:14;95160.91;;;6.52;100.00
2192;BME280;1102;49.718;11.902;2023-04-01T21:10:04;95192.66;;;6.72;100.00
2192;BME280;1102;49.718;11.902;2023-04-01T21:15:07;95198.25;;;6.70;100.00
2192;BME280;1102;49.718;11.902;2023-04-01T21:17:58;95171.97;;;6.46;100.00
2192;BME280;1102;49.718;11.902;2023-04-01T21:39:30;95210.28;;;6.71;100.00
2192;BME280;1102;49.718;11.902;2023-04-01T21:48:01;95221.31;;;6.77;100.00
2192;BME280;1102;49.718;11.902;2023-04-01T22:05:22;95237.97;;;6.69;100.00
2192;BME280;1102;49.718;11.902;2023-04-01T22:11:02;95237.97;;;6.69;100.00
2192;BME280;1102;49.718;11.902;2023-04-01T22:13:39;95229.09;;;6.61;100.00
2192;BME280;1102;49.718;11.902;2023-04-01T22:16:17;95219.44;;;6.53;100.00
2192;BME280;1102;49.718;11.902;2023-04-01T22:27:03;95244.06;;;6.61;100.00
2192;BME280;1102;49.718;11.902;2023-04-01T22:29:41;95245.50;;;6.58;100.00
2192;BME280;1102;49.718;11.902;2023-04-01T22:32:28;95217.78;;;6.36;100.00
2192;BME280;1102;49.718;11.902;2023-04-01T22:40:42;95253.72;;;6.57;100.00
2192;BME280;1102;49.718;11.902;2023-04-01T22:43:37;95197.53;;;6.25;100.00
2192;BME280;1102;49.718;11.902;2023-04-01T22:56:37;95224.03;;;6.32;100.00
2192;BME280;1102;49.718;11.902;2023-04-01T22:59:22;95219.88;;;6.31;100.00
2192;BME280;1102;49.718;11.902;2023-04-01T23:02:06;95256.09;;;6.49;100.00
2192;BME280;1102;49.718;11.902;2023-04-01T23:04:39;95265.75;;;6.58;100.00
2192;BME280;1102;49.718;11.902;2023-04-01T23:07:40;95272.28;;;6.51;100.00
2192;BME280;1102;49.718;11.902;2023-04-01T23:12:45;95155.50;;;5.67;100.00
2192;BME280;1102;49.718;11.902;2023-04-01T23:15:14;95287.69;;;6.53;100.00
2192;BME280;1102;49.718;11.902;2023-04-01T23:27:03;95287.47;;;6.46;100.00
2192;BME280;1102;49.718;11.902;2023-04-01T23:29:03;95273.44;;;6.30;100.00
2192;BME280;1102;49.718;11.902;2023-04-01T23:31:35;95283.50;;;6.40;100.00
2192;BME280;1102;49.718;11.902;2023-04-01T23:36:52;95279.25;;;6.35;100.00
2192;BME280;1102;49.718;11.902;2023-04-01T23:39:32;95254.28;;;6.17;100.00
2192;BME280;1102;49.718;11.902;2023-04-01T23:42:44;95297.66;;;6.47;100.00
2192;BME280;1102;49.718;11.902;2023-04-01T23:44:57;95091.50;;;5.02;100.00
2192;BME280;1102;49.718;11.902;2023-04-01T23:47:30;95230.19;;;6.03;100.00
2192;BME280;1102;49.718;11.902;2023-04-01T23:50:01;95313.41;;;6.47;100.00
2192;BME280;1102;49.718;11.902;2023-04-01T23:52:41;95262.78;;;6.14;100.00
2192;BME280;1102;49.718;11.902;2023-04-01T23:55:27;95314.19;;;6.48;100.00
